Time;durP1;ratioP1;P1;durP2;ratioP2;P2;SDS_P1;SDS_P2;PMS_P1;PMS_P2;Temp;Humidity;BMP_temperature;BMP_pressure;BME280_temperature;BME280_humidity;BME280_pressure;Samples;Min_cycle;Max_cycle;Signal;HPM_P1;HPM_P2
2024/03/07 00:00:19;;;;;;;17.63;10.10;;;10.30;99.90;;;;;;5035537;28;20033;-74
2024/03/07 00:02:47;;;;;;;13.75;10.35;;;10.30;99.90;;;;;;5035195;28;20037;-73
2024/03/07 00:05:17;;;;;;;13.82;10.10;;;10.30;99.90;;;;;;5017452;28;20067;-74
2024/03/07 00:07:44;;;;;;;14.18;9.50;;;10.30;99.90;;;;;;5035245;28;20033;-74
2024/03/07 00:10:10;;;;;;;17.92;10.05;;;10.30;99.90;;;;;;5035216;28;20112;-74
2024/03/07 00:12:38;;;;;;;14.23;9.98;;;10.30;99.90;;;;;;5034740;28;20543;-75
2024/03/07 00:15:05;;;;;;;15.73;10.55;;;10.20;99.90;;;;;;5034845;28;20096;-74
2024/03/07 00:17:31;;;;;;;18.08;10.55;;;10.20;99.90;;;;;;5034926;28;20091;-74
2024/03/07 00:19:56;;;;;;;14.48;10.20;;;10.30;99.90;;;;;;5035002;28;20041;-75
2024/03/07 00:22:24;;;;;;;18.42;11.02;;;10.20;99.90;;;;;;5034687;28;20042;-74
2024/03/07 00:24:49;;;;;;;16.75;9.75;;;10.30;99.90;;;;;;5034415;28;20108;-74
2024/03/07 00:27:16;;;;;;;13.52;10.30;;;10.20;99.90;;;;;;5033992;28;20461;-75
2024/03/07 00:29:41;;;;;;;26.02;11.57;;;10.20;99.90;;;;;;5034689;28;20042;-75
2024/03/07 00:32:08;;;;;;;17.60;10.30;;;10.20;99.90;;;;;;5034637;28;20448;-74
2024/03/07 00:34:33;;;;;;;14.57;9.98;;;10.20;99.90;;;;;;5034500;28;20037;-74
2024/03/07 00:36:59;;;;;;;15.07;10.90;;;10.20;99.90;;;;;;5034582;28;20033;-75
2024/03/07 00:39:26;;;;;;;14.55;10.85;;;10.20;99.90;;;;;;5034519;28;20037;-75
2024/03/07 00:41:51;;;;;;;14.80;10.17;;;10.20;99.90;;;;;;5034486;28;20041;-75
2024/03/07 00:44:17;;;;;;;21.23;10.57;;;10.20;99.90;;;;;;5034384;28;20037;-74
2024/03/07 00:46:43;;;;;;;14.77;9.88;;;10.20;99.90;;;;;;5034202;28;20389;-74
2024/03/07 00:49:09;;;;;;;14.00;9.45;;;10.20;99.90;;;;;;5034369;28;20053;-74
2024/03/07 00:51:35;;;;;;;11.68;9.05;;;10.20;99.90;;;;;;5034449;28;20041;-74
2024/03/07 00:54:01;;;;;;;13.05;9.05;;;10.30;99.90;;;;;;5034519;28;20049;-73
2024/03/07 00:56:27;;;;;;;12.50;9.02;;;10.30;99.90;;;;;;5034321;28;20029;-74
2024/03/07 00:58:52;;;;;;;12.70;9.60;;;10.30;99.90;;;;;;5034172;28;20061;-74
2024/03/07 01:01:21;;;;;;;12.73;8.75;;;10.30;99.90;;;;;;5034181;28;20078;-74
2024/03/07 01:03:47;;;;;;;14.35;8.82;;;10.30;99.90;;;;;;5034207;28;20029;-74
2024/03/07 01:06:13;;;;;;;16.25;8.88;;;10.30;99.90;;;;;;5034088;28;20095;-74
2024/03/07 01:08:39;;;;;;;14.05;8.80;;;10.30;99.90;;;;;;5016147;28;20028;-74
2024/03/07 01:11:12;;;;;;;16.07;9.77;;;10.30;99.90;;;;;;5033809;28;20029;-74
2024/03/07 01:13:41;;;;;;;12.90;9.05;;;10.30;99.90;;;;;;5033974;28;20110;-74
2024/03/07 01:16:07;;;;;;;13.33;8.50;;;10.30;99.90;;;;;;5033914;28;20474;-73
2024/03/07 01:18:35;;;;;;;13.57;8.55;;;10.30;99.90;;;;;;5033774;28;20462;-75
2024/03/07 01:21:02;;;;;;;10.88;7.03;;;10.30;99.90;;;;;;5033178;28;20041;-73
2024/03/07 01:23:28;;;;;;;13.68;7.15;;;10.30;99.90;;;;;;5033713;28;20030;-74
2024/03/07 01:25:59;;;;;;;9.75;6.95;;;10.30;99.90;;;;;;5033678;28;20516;-74
2024/03/07 01:28:26;;;;;;;11.77;7.80;;;10.30;99.90;;;;;;5016072;28;20030;-75
2024/03/07 01:30:52;;;;;;;15.88;8.00;;;10.30;99.90;;;;;;5033618;28;20099;-75
2024/03/07 01:33:19;;;;;;;11.80;7.13;;;10.30;99.90;;;;;;5015732;28;20052;-69
2024/03/07 01:35:45;;;;;;;11.52;7.97;;;10.20;99.90;;;;;;5033538;28;20034;-74
2024/03/07 01:38:13;;;;;;;12.05;7.50;;;10.20;99.90;;;;;;5032708;28;20048;-74
2024/03/07 01:40:40;;;;;;;15.27;7.38;;;10.30;99.90;;;;;;5033444;28;20041;-74
2024/03/07 01:43:06;;;;;;;9.07;7.15;;;10.20;99.90;;;;;;5033313;28;20037;-74
2024/03/07 01:45:32;;;;;;;11.00;7.55;;;10.30;99.90;;;;;;5033220;28;20096;-74
2024/03/07 01:47:57;;;;;;;8.60;7.40;;;10.20;99.90;;;;;;5033024;28;20045;-74
2024/03/07 01:50:23;;;;;;;11.10;8.40;;;10.20;99.90;;;;;;5033143;28;20045;-75
2024/03/07 01:52:55;;;;;;;13.43;7.97;;;10.20;99.90;;;;;;5033139;28;20128;-75
2024/03/07 01:55:22;;;;;;;13.70;7.38;;;10.20;99.90;;;;;;5033006;28;20401;-74
2024/03/07 01:57:49;;;;;;;13.75;8.38;;;10.20;99.90;;;;;;5032756;28;20041;-74
2024/03/07 02:00:15;;;;;;;15.63;8.00;;;10.20;99.90;;;;;;5030291;28;20068;-74
2024/03/07 02:02:42;;;;;;;9.27;7.30;;;10.20;99.90;;;;;;5030302;28;20158;-75
2024/03/07 02:05:08;;;;;;;11.13;7.75;;;10.20;99.90;;;;;;5031657;28;20133;-70
2024/03/07 02:07:34;;;;;;;13.27;7.47;;;10.20;99.90;;;;;;5015392;28;20129;-74
2024/03/07 02:10:03;;;;;;;12.23;8.05;;;10.20;99.90;;;;;;5032916;28;20467;-74
2024/03/07 02:12:30;;;;;;;13.65;8.25;;;10.10;99.90;;;;;;5032873;28;20037;-74
2024/03/07 02:14:59;;;;;;;12.02;7.72;;;10.10;99.90;;;;;;5032653;28;20041;-72
2024/03/07 02:17:27;;;;;;;13.05;8.75;;;10.10;99.90;;;;;;5032698;28;20037;-73
2024/03/07 02:19:53;;;;;;;11.52;8.57;;;10.10;99.90;;;;;;5033083;28;20088;-74
2024/03/07 02:22:19;;;;;;;12.32;8.00;;;10.10;99.90;;;;;;5032510;28;20046;-74
2024/03/07 02:24:46;;;;;;;11.00;8.30;;;10.10;99.90;;;;;;5032613;28;20462;-74
2024/03/07 02:27:14;;;;;;;12.30;8.23;;;10.10;99.90;;;;;;5032592;28;20065;-71
2024/03/07 02:29:40;;;;;;;10.93;8.13;;;10.10;99.90;;;;;;5032338;28;20037;-74
2024/03/07 02:32:06;;;;;;;12.67;8.70;;;10.10;99.90;;;;;;5032808;28;20482;-75
2024/03/07 02:34:32;;;;;;;11.68;8.07;;;10.10;99.90;;;;;;5032625;28;20037;-75
2024/03/07 02:36:58;;;;;;;13.38;8.50;;;10.10;99.90;;;;;;5032507;28;20037;-74
2024/03/07 02:39:26;;;;;;;13.33;8.03;;;10.10;99.90;;;;;;5032438;28;20040;-74
2024/03/07 02:41:52;;;;;;;12.75;8.25;;;10.10;99.90;;;;;;5032379;28;20112;-74
2024/03/07 02:44:18;;;;;;;13.35;8.63;;;10.10;99.90;;;;;;5032759;28;20123;-71
2024/03/07 02:46:44;;;;;;;13.40;8.63;;;10.00;99.90;;;;;;5032599;28;20042;-74
2024/03/07 02:49:09;;;;;;;12.17;8.57;;;10.00;99.90;;;;;;5032842;28;20064;-74
2024/03/07 02:51:36;;;;;;;15.57;9.27;;;10.00;99.90;;;;;;5036533;28;20073;-74
2024/03/07 02:54:05;;;;;;;13.23;9.48;;;9.90;99.90;;;;;;5036763;28;20091;-74
2024/03/07 02:56:31;;;;;;;14.17;9.07;;;9.90;99.90;;;;;;5036348;28;20030;-74
2024/03/07 02:58:57;;;;;;;10.90;8.47;;;9.90;99.90;;;;;;5036446;28;20041;-74
2024/03/07 03:01:22;;;;;;;10.23;8.17;;;9.90;99.90;;;;;;5036445;28;20449;-75
2024/03/07 03:03:48;;;;;;;11.90;8.97;;;9.90;99.90;;;;;;5036239;28;20039;-74
2024/03/07 03:06:14;;;;;;;14.47;9.17;;;9.90;99.90;;;;;;5036273;28;20088;-74
2024/03/07 03:08:40;;;;;;;11.57;8.93;;;9.90;99.90;;;;;;5035981;28;20041;-74
2024/03/07 03:11:09;;;;;;;11.27;8.75;;;9.80;99.90;;;;;;5036115;28;20030;-74
2024/03/07 03:13:38;;;;;;;14.63;8.27;;;9.80;99.90;;;;;;5036010;28;20056;-74
2024/03/07 03:16:06;;;;;;;10.43;8.55;;;9.80;99.90;;;;;;5036301;28;20056;-74
2024/03/07 03:18:33;;;;;;;16.58;8.68;;;9.80;99.90;;;;;;5036085;28;20087;-74
2024/03/07 03:21:00;;;;;;;10.87;7.70;;;9.80;99.90;;;;;;5035902;28;20041;-74
2024/03/07 03:23:25;;;;;;;12.60;7.95;;;9.80;99.90;;;;;;5036317;28;20040;-74
2024/03/07 03:25:51;;;;;;;15.18;8.43;;;9.70;99.90;;;;;;5035935;28;20037;-74
2024/03/07 03:28:18;;;;;;;11.03;7.90;;;9.70;99.90;;;;;;5036145;28;20393;-75
2024/03/07 03:30:44;;;;;;;13.38;8.10;;;9.70;99.90;;;;;;5035755;28;20091;-74
2024/03/07 03:33:10;;;;;;;11.07;8.23;;;9.60;99.90;;;;;;5035881;28;20041;-74
2024/03/07 03:35:40;;;;;;;10.77;7.23;;;9.60;99.90;;;;;;5035755;28;20160;-74
2024/03/07 03:38:09;;;;;;;9.90;7.47;;;9.60;99.90;;;;;;5018171;28;20069;-74
2024/03/07 03:40:35;;;;;;;14.60;7.80;;;9.60;99.90;;;;;;5035824;28;20033;-74
2024/03/07 03:43:00;;;;;;;11.43;8.50;;;9.60;99.90;;;;;;5035532;28;20037;-74
2024/03/07 03:45:26;;;;;;;13.63;8.17;;;9.50;99.90;;;;;;5035569;28;20038;-74
2024/03/07 03:47:53;;;;;;;12.40;7.73;;;9.50;99.90;;;;;;5035579;28;20042;-74
2024/03/07 03:50:19;;;;;;;14.73;8.13;;;9.50;99.90;;;;;;5035413;28;20041;-74
2024/03/07 03:52:45;;;;;;;15.07;9.03;;;9.50;99.90;;;;;;5035248;28;20051;-74
2024/03/07 03:55:11;;;;;;;14.40;9.20;;;9.50;99.90;;;;;;5035326;28;20045;-73
2024/03/07 03:57:39;;;;;;;13.80;9.20;;;9.50;99.90;;;;;;5035891;28;20407;-74
2024/03/07 04:00:12;;;;;;;12.67;8.47;;;9.40;99.90;;;;;;5035288;28;20091;-74
2024/03/07 04:02:47;;;;;;;9.97;7.33;;;9.40;99.90;;;;;;5034637;28;20043;-74
2024/03/07 04:05:14;;;;;;;10.67;7.87;;;9.40;99.90;;;;;;5035382;28;20033;-74
2024/03/07 04:07:44;;;;;;;13.60;7.93;;;9.40;99.90;;;;;;5035167;28;20044;-73
2024/03/07 04:10:11;;;;;;;11.97;8.27;;;9.40;99.90;;;;;;5035018;28;20117;-74
2024/03/07 04:12:39;;;;;;;15.20;9.27;;;9.40;99.90;;;;;;5034914;28;20038;-74
2024/03/07 04:15:13;;;;;;;18.53;14.47;;;9.30;99.90;;;;;;5034800;28;20368;-74
2024/03/07 04:17:39;;;;;;;23.03;19.23;;;9.30;99.90;;;;;;5035234;28;20552;-73
2024/03/07 04:20:06;;;;;;;18.20;16.30;;;9.30;99.90;;;;;;5034790;28;20101;-73
2024/03/07 04:22:33;;;;;;;18.80;16.10;;;9.30;99.90;;;;;;5035094;28;20054;-73
2024/03/07 04:24:59;;;;;;;14.93;11.93;;;9.30;99.90;;;;;;5034962;28;20060;-73
2024/03/07 04:27:26;;;;;;;11.30;10.13;;;9.30;99.90;;;;;;5035133;28;20112;-74
2024/03/07 04:29:52;;;;;;;13.70;9.93;;;9.30;99.90;;;;;;5034891;28;20033;-74
2024/03/07 04:32:18;;;;;;;11.03;8.43;;;9.30;99.90;;;;;;5034944;28;20417;-74
2024/03/07 04:34:44;;;;;;;13.93;8.90;;;9.20;99.90;;;;;;5034756;28;20029;-74
2024/03/07 04:37:10;;;;;;;15.27;8.03;;;9.20;99.90;;;;;;5034552;28;20112;-73
2024/03/07 04:39:36;;;;;;;11.10;9.03;;;9.20;99.90;;;;;;5033588;28;20033;-74
2024/03/07 04:42:02;;;;;;;9.97;7.57;;;9.20;99.90;;;;;;5033637;28;20025;-73
2024/03/07 04:44:32;;;;;;;14.03;8.57;;;9.20;99.90;;;;;;5033434;28;20044;-72
2024/03/07 04:46:59;;;;;;;11.60;8.20;;;9.20;99.90;;;;;;5033791;28;20021;-74
2024/03/07 04:49:26;;;;;;;13.03;9.47;;;9.20;99.90;;;;;;5034328;28;20128;-73
2024/03/07 04:51:54;;;;;;;13.73;8.50;;;9.20;99.90;;;;;;5034305;28;20104;-74
2024/03/07 04:54:20;;;;;;;14.10;8.10;;;9.20;99.90;;;;;;5034219;28;20052;-74
2024/03/07 04:56:46;;;;;;;12.00;7.90;;;9.20;99.90;;;;;;5016407;28;20444;-74
2024/03/07 04:59:13;;;;;;;11.30;7.73;;;9.20;99.90;;;;;;5034214;28;20034;-74
2024/03/07 05:01:39;;;;;;;13.97;9.37;;;9.10;99.90;;;;;;5034193;28;20052;-74
2024/03/07 05:04:06;;;;;;;14.63;10.53;;;9.10;99.90;;;;;;5033849;28;20473;-72
2024/03/07 05:06:33;;;;;;;14.27;10.30;;;9.10;99.90;;;;;;5034304;28;20108;-74
2024/03/07 05:09:06;;;;;;;20.47;10.70;;;9.10;99.90;;;;;;5034094;28;20116;-74
2024/03/07 05:11:33;;;;;;;14.20;10.27;;;9.00;99.90;;;;;;5033835;28;20465;-74
2024/03/07 05:14:00;;;;;;;14.70;10.93;;;9.00;99.90;;;;;;5033677;28;20041;-73
2024/03/07 05:16:30;;;;;;;17.70;10.50;;;9.00;99.90;;;;;;5033699;28;20092;-74
2024/03/07 05:18:59;;;;;;;19.10;10.53;;;9.00;99.90;;;;;;5033882;28;20035;-74
2024/03/07 05:21:40;;;;;;;19.83;9.77;;;9.00;99.90;;;;;;5033679;28;20025;-74
2024/03/07 05:24:07;;;;;;;14.60;9.93;;;8.90;99.90;;;;;;5033714;28;20034;-74
2024/03/07 05:26:37;;;;;;;13.07;9.47;;;8.90;99.90;;;;;;5033770;28;20033;-74
2024/03/07 05:29:09;;;;;;;15.37;9.83;;;8.90;99.90;;;;;;5033422;28;20083;-74
2024/03/07 05:31:45;;;;;;;12.80;9.60;;;9.00;99.90;;;;;;5033686;28;20481;-73
2024/03/07 05:34:12;;;;;;;16.73;8.80;;;8.90;99.90;;;;;;5033510;28;20050;-73
2024/03/07 05:36:45;;;;;;;14.27;9.40;;;8.90;99.90;;;;;;5033090;28;20117;-74
2024/03/07 05:39:12;;;;;;;15.47;9.83;;;8.90;99.90;;;;;;5033280;28;20079;-72
2024/03/07 05:41:39;;;;;;;14.10;9.40;;;8.90;99.90;;;;;;5016018;28;20045;-73
2024/03/07 05:44:08;;;;;;;15.07;9.87;;;8.90;99.90;;;;;;5033275;28;20037;-74
2024/03/07 05:46:41;;;;;;;14.03;9.63;;;8.90;99.90;;;;;;5032965;28;20027;-74
2024/03/07 05:49:09;;;;;;;;;;;8.90;99.90;;;;;;5033723;28;20046;-74
2024/03/07 05:51:36;;;;;;;13.50;9.30;;;8.90;99.90;;;;;;5033545;28;19905;-74
2024/03/07 05:54:06;;;;;;;12.87;8.97;;;8.90;99.90;;;;;;5033040;28;20042;-74
2024/03/07 05:56:35;;;;;;;13.23;9.20;;;8.90;99.90;;;;;;5032847;28;20036;-75
2024/03/07 05:59:04;;;;;;;11.63;9.37;;;8.90;99.90;;;;;;5033406;28;20038;-74
2024/03/07 06:01:32;;;;;;;13.77;9.60;;;8.90;99.90;;;;;;5031795;28;20025;-68
2024/03/07 06:03:59;;;;;;;13.63;9.37;;;9.00;99.90;;;;;;5032672;28;20029;-74
2024/03/07 06:06:25;;;;;;;11.87;8.73;;;9.00;99.90;;;;;;5014591;28;20365;-74
2024/03/07 06:08:51;;;;;;;13.90;8.60;;;9.00;99.90;;;;;;5031045;28;20033;-73
2024/03/07 06:11:21;;;;;;;13.70;8.60;;;9.00;99.90;;;;;;5031013;28;20033;-74
2024/03/07 06:13:47;;;;;;;13.30;8.80;;;9.00;99.90;;;;;;5031976;28;20056;-74
2024/03/07 06:16:14;;;;;;;16.23;9.67;;;9.00;99.90;;;;;;5032303;28;20072;-74
2024/03/07 06:18:40;;;;;;;11.70;8.43;;;9.00;99.90;;;;;;5032701;28;20065;-73
2024/03/07 06:21:06;;;;;;;15.83;8.73;;;9.00;99.90;;;;;;5032416;28;20060;-74
2024/03/07 06:23:32;;;;;;;15.97;8.60;;;9.00;99.90;;;;;;5031752;28;20042;-72
2024/03/07 06:25:59;;;;;;;13.87;8.17;;;9.00;99.90;;;;;;5032364;28;20033;-74
2024/03/07 06:28:25;;;;;;;14.33;8.07;;;9.10;99.90;;;;;;5032669;28;20402;-73
2024/03/07 06:30:50;;;;;;;13.17;8.50;;;9.10;99.90;;;;;;5032508;28;20072;-74
2024/03/07 06:33:16;;;;;;;13.00;8.47;;;9.10;99.90;;;;;;5032433;28;20453;-74
2024/03/07 06:35:42;;;;;;;11.63;8.57;;;9.10;99.90;;;;;;5032513;28;20029;-74
2024/03/07 06:38:10;;;;;;;12.70;8.43;;;9.10;99.90;;;;;;5014955;28;20393;-74
2024/03/07 06:40:36;;;;;;;17.67;8.20;;;9.10;99.90;;;;;;5032808;28;20033;-73
2024/03/07 06:43:12;;;;;;;13.23;8.20;;;9.20;99.90;;;;;;5032745;28;20060;-73
2024/03/07 06:45:39;;;;;;;10.80;7.93;;;9.10;99.90;;;;;;5032474;28;20038;-74
2024/03/07 06:48:08;;;;;;;15.37;9.13;;;9.20;99.90;;;;;;5032206;28;20054;-74
2024/03/07 06:50:34;;;;;;;14.27;8.93;;;9.20;99.90;;;;;;5032457;28;20045;-73
2024/03/07 06:53:01;;;;;;;14.97;9.00;;;9.20;99.90;;;;;;5031997;28;20052;-74
2024/03/07 06:55:27;;;;;;;16.80;9.07;;;9.20;99.90;;;;;;5032542;28;20056;-73
2024/03/07 06:57:53;;;;;;;13.90;9.47;;;9.20;99.90;;;;;;5032011;28;20037;-74
2024/03/07 07:00:19;;;;;;;16.23;9.30;;;9.30;99.90;;;;;;5032176;28;20041;-73
2024/03/07 07:02:46;;;;;;;28.70;9.73;;;9.30;99.90;;;;;;5031969;28;20382;-72
2024/03/07 07:05:15;;;;;;;17.97;8.97;;;9.30;99.90;;;;;;5031801;28;20038;-74
2024/03/07 07:07:43;;;;;;;12.57;9.00;;;9.30;99.90;;;;;;5031745;28;20029;-73
2024/03/07 07:10:15;;;;;;;12.40;8.77;;;9.40;99.90;;;;;;5031905;28;20060;-73
2024/03/07 07:12:45;;;;;;;16.58;8.45;;;9.40;99.90;;;;;;5032396;28;20436;-74
2024/03/07 07:15:12;;;;;;;22.80;9.67;;;9.40;99.90;;;;;;5032095;28;20108;-72
2024/03/07 07:17:38;;;;;;;15.53;9.63;;;9.50;99.90;;;;;;5031805;28;20042;-74
2024/03/07 07:20:10;;;;;;;16.17;9.43;;;9.50;99.90;;;;;;5032077;28;20038;-72
2024/03/07 07:22:38;;;;;;;15.10;8.93;;;9.60;99.90;;;;;;5031923;28;20561;-74
2024/03/07 07:25:05;;;;;;;17.02;9.43;;;9.60;99.90;;;;;;5032045;28;20037;-74
2024/03/07 07:27:34;;;;;;;13.83;9.47;;;9.70;99.90;;;;;;5030724;28;20560;-68
2024/03/07 07:30:00;;;;;;;17.48;9.65;;;9.80;99.90;;;;;;5030595;28;20044;-74
2024/03/07 07:32:27;;;;;;;15.17;9.33;;;9.80;99.90;;;;;;5031471;28;20045;-72
2024/03/07 07:34:53;;;;;;;15.90;9.37;;;9.80;99.90;;;;;;5023915;28;20117;-74
2024/03/07 07:37:19;;;;;;;15.10;8.97;;;9.80;99.90;;;;;;5033677;28;20124;-74
2024/03/07 07:39:46;;;;;;;21.77;10.10;;;9.90;99.90;;;;;;5035481;28;20041;-73
2024/03/07 07:42:11;;;;;;;17.63;9.60;;;9.90;99.90;;;;;;5035663;28;20052;-74
2024/03/07 07:44:37;;;;;;;17.87;10.77;;;10.00;99.90;;;;;;5035915;28;20473;-75
2024/03/07 07:47:03;;;;;;;17.03;10.40;;;10.00;99.90;;;;;;5035451;28;20036;-74
2024/03/07 07:49:31;;;;;;;15.43;10.38;;;10.00;99.90;;;;;;5035787;28;20124;-67
2024/03/07 07:51:56;;;;;;;17.80;11.98;;;10.00;99.90;;;;;;5035587;28;20037;-67
2024/03/07 07:54:24;;;;;;;20.98;11.98;;;10.10;99.90;;;;;;5035578;28;20052;-74
2024/03/07 07:56:51;;;;;;;16.70;11.40;;;10.20;99.90;;;;;;5035315;28;20171;-74
2024/03/07 07:59:17;;;;;;;20.00;11.77;;;10.30;99.90;;;;;;5034935;28;20065;-72
2024/03/07 08:01:42;;;;;;;22.30;12.52;;;10.30;99.90;;;;;;5035094;28;20547;-74
2024/03/07 08:04:09;;;;;;;19.57;12.07;;;10.40;99.90;;;;;;5032559;28;20167;-77
2024/03/07 08:06:35;;;;;;;20.95;11.43;;;10.40;99.90;;;;;;5032315;28;20383;-76
2024/03/07 08:09:01;;;;;;;16.60;11.00;;;10.50;99.90;;;;;;5032931;28;20116;-73
2024/03/07 08:11:26;;;;;;;15.27;10.95;;;10.60;99.90;;;;;;5034419;28;20436;-74
2024/03/07 08:13:52;;;;;;;14.52;10.18;;;10.60;99.90;;;;;;5016869;28;20410;-74
2024/03/07 08:16:18;;;;;;;15.88;9.90;;;10.70;99.90;;;;;;5034249;28;20175;-75
2024/03/07 08:18:44;;;;;;;14.20;10.18;;;10.70;99.90;;;;;;5033250;28;20034;-74
2024/03/07 08:21:13;;;;;;;14.93;10.52;;;10.80;99.90;;;;;;5032258;28;20115;-73
2024/03/07 08:23:39;;;;;;;16.65;10.98;;;10.90;99.90;;;;;;5031989;28;20078;-73
2024/03/07 08:26:05;;;;;;;17.50;10.05;;;10.90;99.90;;;;;;5033768;28;20140;-73
2024/03/07 08:28:31;;;;;;;17.60;9.98;;;10.90;99.90;;;;;;5033209;28;20038;-75
2024/03/07 08:30:58;;;;;;;14.68;9.80;;;11.00;99.90;;;;;;5032899;28;20095;-74
2024/03/07 08:33:24;;;;;;;17.73;10.85;;;11.00;99.90;;;;;;5032634;28;20059;-74
2024/03/07 08:35:52;;;;;;;15.30;9.82;;;11.10;99.90;;;;;;5033056;28;20478;-75
2024/03/07 08:38:18;;;;;;;16.77;9.52;;;11.10;99.90;;;;;;5032500;28;20029;-74
2024/03/07 08:40:44;;;;;;;15.13;9.98;;;11.20;99.90;;;;;;5032757;28;20386;-73
2024/03/07 08:43:10;;;;;;;15.95;9.82;;;11.20;99.90;;;;;;5033142;28;20033;-73
2024/03/07 08:45:36;;;;;;;12.13;8.88;;;11.30;99.90;;;;;;5032630;28;20045;-74
2024/03/07 08:48:08;;;;;;;17.15;9.30;;;11.30;99.90;;;;;;5032003;28;20128;-74
2024/03/07 08:50:34;;;;;;;12.65;8.95;;;11.40;99.90;;;;;;5032480;28;20397;-75
2024/03/07 08:53:01;;;;;;;14.77;8.70;;;11.40;99.90;;;;;;4998314;28;20046;-74
2024/03/07 08:55:26;;;;;;;13.23;8.90;;;11.50;99.90;;;;;;5032965;28;20478;-73
2024/03/07 08:57:52;;;;;;;14.68;8.27;;;11.50;99.90;;;;;;5034264;28;20033;-75
2024/03/07 09:00:22;;;;;;;13.57;8.43;;;11.60;99.90;;;;;;5034108;28;20037;-73
2024/03/07 09:02:53;;;;;;;15.27;9.75;;;11.60;99.90;;;;;;5034098;28;20498;-75
2024/03/07 09:05:20;;;;;;;18.38;9.90;;;11.70;99.30;;;;;;5033939;28;20042;-75
2024/03/07 09:07:46;;;;;;;13.38;8.57;;;11.70;96.90;;;;;;5033903;28;20037;-75
2024/03/07 09:10:17;;;;;;;14.20;8.13;;;11.80;96.20;;;;;;5033847;28;20043;-74
2024/03/07 09:12:43;;;;;;;19.30;9.00;;;11.80;94.70;;;;;;5033105;28;20129;-72
2024/03/07 09:15:10;;;;;;;13.02;8.57;;;11.80;95.20;;;;;;5034076;28;20038;-75
2024/03/07 09:17:36;;;;;;;12.25;8.20;;;11.90;95.50;;;;;;5033664;28;20540;-74
2024/03/07 09:20:06;;;;;;;12.25;7.68;;;11.90;94.70;;;;;;5033589;28;20029;-74
2024/03/07 09:22:32;;;;;;;14.82;7.63;;;12.00;94.50;;;;;;5033674;28;20556;-73
2024/03/07 09:24:59;;;;;;;10.68;7.10;;;12.00;93.80;;;;;;5033752;28;20485;-75
2024/03/07 09:27:25;;;;;;;11.05;7.55;;;12.00;93.60;;;;;;5015887;28;20032;-75
2024/03/07 09:29:51;;;;;;;14.18;7.63;;;12.00;92.80;;;;;;5033795;28;20078;-75
2024/03/07 09:32:17;;;;;;;11.52;7.38;;;12.10;93.10;;;;;;5033252;28;20124;-73
2024/03/07 09:34:43;;;;;;;11.05;7.13;;;12.10;93.50;;;;;;5033344;28;20037;-73
2024/03/07 09:37:08;;;;;;;8.73;6.32;;;12.20;92.70;;;;;;5033175;28;20391;-75
2024/03/07 09:39:34;;;;;;;11.45;7.07;;;12.20;92.90;;;;;;5033460;28;20109;-75
2024/03/07 09:42:09;;;;;;;13.80;7.93;;;12.20;92.90;;;;;;5033432;28;20116;-75
2024/03/07 09:44:39;;;;;;;10.88;7.20;;;12.30;92.80;;;;;;5033534;28;20032;-75
2024/03/07 09:47:05;;;;;;;13.02;7.38;;;12.30;91.60;;;;;;5033015;28;20025;-75
2024/03/07 09:49:36;;;;;;;10.77;6.40;;;12.40;91.80;;;;;;5032238;28;20398;-75
2024/03/07 09:52:08;;;;;;;12.80;7.45;;;12.30;91.40;;;;;;5032227;28;20112;-74
2024/03/07 09:54:35;;;;;;;8.95;6.55;;;12.40;90.80;;;;;;5014615;28;20520;-75
2024/03/07 09:57:03;;;;;;;9.82;7.00;;;12.40;90.50;;;;;;5032208;28;20473;-74
2024/03/07 09:59:30;;;;;;;12.73;6.95;;;12.40;90.30;;;;;;5031452;28;20180;-75
2024/03/07 10:01:57;;;;;;;11.48;7.00;;;12.40;90.10;;;;;;5032086;28;20104;-75
2024/03/07 10:04:31;;;;;;;9.90;7.20;;;12.50;89.70;;;;;;5032991;28;20065;-75
2024/03/07 10:06:58;;;;;;;10.68;7.07;;;12.50;90.20;;;;;;5033279;28;20040;-75
2024/03/07 10:09:24;;;;;;;8.95;6.68;;;12.50;88.80;;;;;;5032956;28;20034;-75
2024/03/07 10:11:59;;;;;;;8.63;6.38;;;12.60;88.50;;;;;;5033019;28;20041;-74
2024/03/07 10:14:25;;;;;;;13.00;6.68;;;12.60;87.60;;;;;;5032873;28;20065;-75
2024/03/07 10:16:56;;;;;;;10.07;6.78;;;12.70;89.40;;;;;;5033041;28;20044;-75
2024/03/07 10:19:22;;;;;;;10.20;7.10;;;12.70;88.80;;;;;;5032682;28;20038;-74
2024/03/07 10:21:48;;;;;;;10.68;6.95;;;12.80;88.70;;;;;;5032836;28;20365;-75
2024/03/07 10:24:14;;;;;;;12.93;6.68;;;12.90;89.30;;;;;;5032901;28;20436;-75
2024/03/07 10:26:40;;;;;;;8.02;5.90;;;12.90;90.10;;;;;;5032652;28;20037;-75
2024/03/07 10:29:09;;;;;;;14.25;6.65;;;13.00;89.50;;;;;;5032579;28;20496;-75
2024/03/07 10:31:38;;;;;;;10.23;6.75;;;13.10;90.00;;;;;;5032631;28;20043;-76
2024/03/07 10:34:04;;;;;;;10.35;7.07;;;13.10;89.00;;;;;;5032653;28;20478;-75
2024/03/07 10:36:31;;;;;;;11.55;7.50;;;13.20;87.80;;;;;;5032497;28;20112;-74
2024/03/07 10:39:02;;;;;;;9.60;6.85;;;13.30;88.20;;;;;;5031743;28;20068;-74
2024/03/07 10:41:30;;;;;;;9.52;6.78;;;13.30;88.40;;;;;;5032421;28;20489;-72
2024/03/07 10:43:58;;;;;;;8.73;6.30;;;13.40;88.50;;;;;;5014844;28;20037;-74
2024/03/07 10:46:26;;;;;;;9.57;6.75;;;13.40;88.50;;;;;;5032404;28;20038;-74
2024/03/07 10:48:58;;;;;;;12.82;7.28;;;13.50;88.20;;;;;;5032141;28;20053;-74
2024/03/07 10:51:33;;;;;;;13.73;7.32;;;13.40;87.10;;;;;;5032554;28;20108;-74
2024/03/07 10:54:30;;;;;;;13.30;8.15;;;13.40;87.10;;;;;;5032183;28;20041;-74
2024/03/07 10:57:18;;;;;;;11.38;7.70;;;13.40;85.90;;;;;;5032118;28;20030;-74
2024/03/07 10:59:50;;;;;;;13.48;7.78;;;13.50;85.80;;;;;;5032438;28;20064;-73
2024/03/07 11:02:33;;;;;;;8.93;6.83;;;13.40;85.30;;;;;;5032329;28;20030;-73
2024/03/07 11:04:59;;;;;;;;;;;13.40;85.60;;;;;;5033104;28;20045;-74
2024/03/07 11:07:27;;;;;;;11.13;7.22;;;13.40;84.70;;;;;;5032535;28;19905;-73
2024/03/07 11:09:55;;;;;;;14.10;7.72;;;13.40;83.60;;;;;;5014788;28;20038;-74
2024/03/07 11:12:27;;;;;;;10.65;7.88;;;13.40;82.70;;;;;;5035880;28;20141;-74
2024/03/07 11:14:55;;;;;;;11.60;7.78;;;13.40;84.20;;;;;;5036231;28;20120;-74
2024/03/07 11:17:22;;;;;;;14.65;7.40;;;13.40;85.10;;;;;;5036316;28;20068;-74
2024/03/07 11:19:49;;;;;;;12.68;8.07;;;13.40;85.20;;;;;;5036086;28;20084;-74
2024/03/07 11:22:32;;;;;;;12.10;7.55;;;13.50;85.90;;;;;;5036158;28;20064;-73
2024/03/07 11:25:07;;;;;;;11.27;6.60;;;13.50;86.00;;;;;;5035777;28;20037;-73
2024/03/07 11:27:39;;;;;;;10.57;7.10;;;13.50;85.60;;;;;;5035840;28;20045;-74
2024/03/07 11:30:09;;;;;;;12.25;6.95;;;13.50;85.60;;;;;;5035578;28;20044;-74
2024/03/07 11:32:38;;;;;;;13.00;7.43;;;13.50;86.10;;;;;;5035928;28;20046;-73
2024/03/07 11:35:08;;;;;;;14.13;8.32;;;13.60;85.50;;;;;;5035650;28;20045;-74
2024/03/07 11:37:46;;;;;;;15.38;7.35;;;13.50;84.00;;;;;;5035785;28;20397;-74
2024/03/07 11:40:19;;;;;;;13.60;7.78;;;13.50;83.70;;;;;;5035570;28;20080;-76
2024/03/07 11:42:47;;;;;;;16.48;7.53;;;13.50;84.50;;;;;;5035933;28;20066;-75
2024/03/07 11:45:27;;;;;;;12.05;8.00;;;13.40;84.10;;;;;;5035627;28;20033;-74
2024/03/07 11:47:59;;;;;;;18.75;9.52;;;13.40;85.00;;;;;;5035298;28;20103;-75
2024/03/07 11:50:26;;;;;;;17.10;10.07;;;13.40;85.60;;;;;;5035138;28;20470;-75
2024/03/07 11:52:54;;;;;;;18.42;9.98;;;13.30;90.70;;;;;;5035295;28;20460;-75
2024/03/07 11:55:21;;;;;;;12.85;9.25;;;13.20;91.70;;;;;;5035342;28;20029;-75
2024/03/07 11:57:48;;;;;;;15.93;10.50;;;13.20;92.60;;;;;;5036230;28;20068;-75
2024/03/07 12:00:16;;;;;;;19.00;11.15;;;13.10;94.40;;;;;;5035564;28;20029;-76
2024/03/07 12:02:43;;;;;;;15.85;11.07;;;13.10;96.50;;;;;;5034803;28;20064;-75
2024/03/07 12:05:09;;;;;;;16.23;11.63;;;13.00;99.00;;;;;;5035005;28;20080;-75
2024/03/07 12:07:35;;;;;;;17.75;11.52;;;12.90;99.90;;;;;;5035526;28;20478;-75
2024/03/07 12:10:06;;;;;;;15.23;9.88;;;12.80;99.90;;;;;;5035299;28;20040;-74
2024/03/07 12:12:32;;;;;;;16.63;9.80;;;12.60;99.90;;;;;;5035237;28;20045;-75
2024/03/07 12:14:59;;;;;;;15.38;10.10;;;12.50;99.90;;;;;;5035070;28;20034;-76
2024/03/07 12:17:25;;;;;;;18.40;10.70;;;12.50;99.90;;;;;;5035033;28;20155;-75
2024/03/07 12:19:51;;;;;;;17.40;10.27;;;12.40;99.90;;;;;;5034803;28;20034;-75
2024/03/07 12:22:22;;;;;;;16.77;10.82;;;12.30;99.90;;;;;;5034180;28;20036;-75
2024/03/07 12:25:10;;;;;;;13.45;9.50;;;12.30;99.90;;;;;;5034710;28;20041;-72
2024/03/07 12:27:38;;;;;;;12.88;8.98;;;12.30;99.90;;;;;;5034880;28;20470;-75
2024/03/07 12:30:16;;;;;;;15.43;9.63;;;12.30;99.90;;;;;;5034764;28;20099;-73
2024/03/07 12:32:52;;;;;;;10.82;8.32;;;12.30;99.90;;;;;;5034820;28;20080;-75
2024/03/07 12:35:18;;;;;;;13.00;8.43;;;12.30;99.90;;;;;;5034623;28;20112;-75
2024/03/07 12:37:46;;;;;;;13.35;8.50;;;12.30;99.90;;;;;;5034365;28;20088;-75
2024/03/07 12:40:19;;;;;;;14.90;8.85;;;12.30;99.90;;;;;;5034399;28;20034;-74
2024/03/07 12:42:48;;;;;;;10.48;7.78;;;12.30;99.90;;;;;;5034735;28;20033;-75